首页
METAR-TAF:

METAR-TAF

机场 :

乞力马扎罗山, 坦桑尼亚

纬度: 03-25S, 经度: 037-04E, 海拔: 891米

当前天气观测

该预报发布于2小时和24分钟前的10:00 UTC
风速8节,风向
温度 28°C
湿度 66%
气压 1016 hPa
能见度10公里或以上
多云层高于3400英尺

METAR: HTKJ 111000Z 08008KT 9999 BKN034 28/21 Q1016 NOSIG

时间: 15:24 (12:24 UTC)

预报

该预报发布于7小时和24分钟前的05:00 UTC
预报有效从11日的 06点(UTC)到 12日的 06点(UTC)
风速节,风向
能见度10公里或以上
散云层高于2500英尺
成为
从 11日的 09点(UTC)到 11日的 11点(UTC)
风速10节,风向
少量云层高于2900英尺, 积雨云.
散云层高于3000英尺
成为
从 11日的 16点(UTC)到 11日的 18点(UTC)
散云层高于2500英尺
成为
从 11日的 20点(UTC)到 11日的 22点(UTC)
风速节,风向

TAF: HTKJ 110500Z 1106/1206 00000KT 9999 SCT025 BECMG 1109/1111 09010KT FEW029CB SCT030 BECMG 1116/1118 SCT025 BECMG 1120/1122 00000KT

超过4000个机场的气象观测和天气预报(METAR&TAF报告)。

可查询的气象台以黄色和红色小点在地图上表示。

将鼠标移到小点上方,可查看气象台名称。

然后点击查看天气观测和预报。

如需切换地图:点击带黑十字的绿色按钮放大地图;点击带横线的绿色按钮缩小地图;或者点击绿色箭头查看邻近地区的地图。


METAR-TAF: